KHLR

Hood AAF Airport

Fort Hood(Killeen), Texas, USA
METAR KHLR 150258Z AUTO 16010KT 10SM CLR 30/21 A2988 RMK AO2 SLP105 T03000206 53008
Observed Flight Rules
Aug-15 @ 02:58 UTC (37 minutes ago) Visual Flight Rules
Wind Visibility Clouds
160° at 10 knots 10 miles
  • Clear skies
Temperatures Readings
Current 30°C / 86°F
Dewpoint 21°C / 70°F
Humidity 59%
Altimeter 29.88" Hg
Pressure 1010.5 hPa
Elevation 283
METAR KHLR 150258Z AUTO 16010KT 10SM CLR 30/21 A2988 RMK AO2 SLP105 T03000206 53008
Observed Flight Rules
Aug-15 @ 02:58 UTC
(37 minutes ago)
VFR
Wind Visibility
160° at 10 knots 10 miles
Clouds
  • Clear skies
Temperature Dewpoint
30°C / 86°F 21°C / 70°F
Humidity Altimeter Pressure
59% 29.88" Hg 1010.5 hPa